createdAt,value
2023-11-12T00:00:12.859Z,29.69
2023-11-12T00:01:12.901Z,29.57
2023-11-12T00:02:12.941Z,29.63
2023-11-12T00:03:12.952Z,29.64
2023-11-12T00:04:12.900Z,29.66
2023-11-12T00:05:12.951Z,29.67
2023-11-12T00:06:12.948Z,29.64
2023-11-12T00:07:12.875Z,29.70
2023-11-12T00:08:12.873Z,29.74
2023-11-12T00:09:12.825Z,29.66
2023-11-12T00:10:12.841Z,29.69
2023-11-12T00:11:12.912Z,29.58
2023-11-12T00:12:12.829Z,29.63
2023-11-12T00:13:12.836Z,29.60
2023-11-12T00:14:12.853Z,29.66
2023-11-12T00:15:12.842Z,29.52
2023-11-12T00:16:12.957Z,29.57
2023-11-12T00:17:12.876Z,29.47
2023-11-12T00:18:12.872Z,29.49
2023-11-12T00:19:12.802Z,29.51
2023-11-12T00:20:12.872Z,29.48
2023-11-12T00:21:13.169Z,29.47
2023-11-12T00:22:12.800Z,29.39
2023-11-12T00:23:12.850Z,29.47
2023-11-12T00:24:12.925Z,29.41
2023-11-12T00:25:12.803Z,29.51
2023-11-12T00:26:12.812Z,29.42
2023-11-12T00:27:12.795Z,29.41
2023-11-12T00:28:12.799Z,29.45
2023-11-12T00:29:12.893Z,29.45
2023-11-12T00:30:12.816Z,29.36
2023-11-12T00:31:12.809Z,29.41
2023-11-12T00:32:12.853Z,29.41
2023-11-12T00:33:12.838Z,29.36
2023-11-12T00:34:12.783Z,29.44
2023-11-12T00:35:12.817Z,29.39
2023-11-12T00:36:12.881Z,29.29
2023-11-12T00:37:12.779Z,29.23
2023-11-12T00:38:12.795Z,29.26
2023-11-12T00:39:12.780Z,29.29
2023-11-12T00:40:12.754Z,29.32
2023-11-12T00:41:12.806Z,29.27
2023-11-12T00:42:12.760Z,29.30
2023-11-12T00:43:12.750Z,29.30
2023-11-12T00:44:12.796Z,29.33
2023-11-12T00:45:12.760Z,29.27
2023-11-12T00:46:12.905Z,29.26
2023-11-12T00:47:12.785Z,29.17
2023-11-12T00:48:12.838Z,29.17
2023-11-12T00:49:12.752Z,29.18
2023-11-12T00:50:12.779Z,29.20
2023-11-12T00:51:12.754Z,29.18
2023-11-12T00:52:12.741Z,29.27
2023-11-12T00:53:12.781Z,29.21
2023-11-12T00:54:12.760Z,29.21
2023-11-12T00:55:12.744Z,29.27
2023-11-12T00:56:12.885Z,29.30
2023-11-12T00:57:12.749Z,29.33
2023-11-12T00:58:12.720Z,29.32
2023-11-12T00:59:12.773Z,29.18
2023-11-12T01:00:12.737Z,29.15
2023-11-12T01:01:12.995Z,29.18
2023-11-12T01:02:12.735Z,29.15
2023-11-12T01:03:12.789Z,28.98
2023-11-12T01:04:12.712Z,29.05
2023-11-12T01:05:12.801Z,29.10
2023-11-12T01:06:12.697Z,29.12
2023-11-12T01:07:13.057Z,29.10
2023-11-12T01:08:12.742Z,29.07
2023-11-12T01:09:12.710Z,29.05
2023-11-12T01:10:12.683Z,29.00
2023-11-12T01:11:12.705Z,28.97
2023-11-12T01:12:12.694Z,29.03
2023-11-12T01:13:12.701Z,29.00
2023-11-12T01:14:12.693Z,28.97
2023-11-12T01:15:12.713Z,28.89
2023-11-12T01:16:12.856Z,28.95
2023-11-12T01:17:12.685Z,28.92
2023-11-12T01:18:12.716Z,28.95
2023-11-12T01:19:12.672Z,29.00
2023-11-12T01:20:12.682Z,28.91
2023-11-12T01:21:12.679Z,28.97
2023-11-12T01:22:12.670Z,29.05
2023-11-12T01:23:12.664Z,29.00
2023-11-12T01:24:12.710Z,29.00
2023-11-12T01:25:12.658Z,28.95
2023-11-12T01:26:12.652Z,28.97
2023-11-12T01:27:12.732Z,28.92
2023-11-12T01:28:12.656Z,28.97
2023-11-12T01:29:12.653Z,28.98
2023-11-12T01:30:12.669Z,28.95
2023-11-12T01:31:12.656Z,28.92
2023-11-12T01:32:12.688Z,28.97
2023-11-12T01:33:12.749Z,28.97
2023-11-12T01:34:12.641Z,28.94
2023-11-12T01:35:12.637Z,29.02
2023-11-12T01:36:12.668Z,28.91
2023-11-12T01:37:12.633Z,29.02
2023-11-12T01:38:12.629Z,28.94
2023-11-12T01:39:12.643Z,28.91
2023-11-12T01:40:12.620Z,29.00
2023-11-12T01:41:12.634Z,28.97
2023-11-12T01:42:12.699Z,28.92
2023-11-12T01:43:12.605Z,28.88
2023-11-12T01:44:12.701Z,28.82
2023-11-12T01:45:12.615Z,28.82
2023-11-12T01:46:12.647Z,28.80
2023-11-12T01:47:12.602Z,28.76
2023-11-12T01:48:12.698Z,28.83
2023-11-12T01:49:12.599Z,28.85
2023-11-12T01:50:12.608Z,28.88
2023-11-12T01:51:12.642Z,28.89
2023-11-12T01:52:12.686Z,28.82
2023-11-12T01:53:12.579Z,28.74
2023-11-12T01:54:12.610Z,28.77
2023-11-12T01:55:12.572Z,28.77
2023-11-12T01:56:12.582Z,28.74
2023-11-12T01:57:12.611Z,28.74
2023-11-12T01:58:12.585Z,28.73
2023-11-12T01:59:12.567Z,28.72
2023-11-12T02:00:13.015Z,28.64
2023-11-12T02:01:12.551Z,28.67
2023-11-12T02:02:12.561Z,28.54
2023-11-12T02:03:12.651Z,28.65
2023-11-12T02:04:12.653Z,28.67
2023-11-12T02:05:12.554Z,28.65
2023-11-12T02:06:12.575Z,28.61
2023-11-12T02:07:12.549Z,28.67
2023-11-12T02:08:12.539Z,28.64
2023-11-12T02:09:12.539Z,28.60
2023-11-12T02:10:12.637Z,28.57
2023-11-12T02:11:12.539Z,28.58
2023-11-12T02:12:12.566Z,28.62
2023-11-12T02:13:12.532Z,28.61
2023-11-12T02:14:12.523Z,28.64
2023-11-12T02:15:12.634Z,28.60
2023-11-12T02:16:12.598Z,28.62
2023-11-12T02:17:12.503Z,28.54
2023-11-12T02:18:12.566Z,28.58
2023-11-12T02:19:12.502Z,28.55
2023-11-12T02:20:12.656Z,28.52
2023-11-12T02:21:12.516Z,28.50
2023-11-12T02:22:12.492Z,28.42
2023-11-12T02:23:12.505Z,28.40
2023-11-12T02:24:12.535Z,28.42
2023-11-12T02:25:12.508Z,28.38
2023-11-12T02:26:12.486Z,28.38
2023-11-12T02:27:12.507Z,28.39
2023-11-12T02:28:12.488Z,28.38
2023-11-12T02:29:12.475Z,28.38
2023-11-12T02:30:12.472Z,28.36
2023-11-12T02:31:12.492Z,28.28
2023-11-12T02:32:12.588Z,28.30
2023-11-12T02:33:12.554Z,28.36
2023-11-12T02:34:12.468Z,28.30
2023-11-12T02:35:12.474Z,28.32
2023-11-12T02:36:12.506Z,28.21
2023-11-12T02:37:12.449Z,28.32
2023-11-12T02:38:12.464Z,28.28
2023-11-12T02:39:12.500Z,28.33
2023-11-12T02:40:12.448Z,28.38
2023-11-12T02:41:12.446Z,28.32
2023-11-12T02:42:12.454Z,28.33
2023-11-12T02:43:12.537Z,28.28
2023-11-12T02:44:12.433Z,28.32
2023-11-12T02:45:12.519Z,28.33
2023-11-12T02:46:12.451Z,28.35
2023-11-12T02:47:12.432Z,28.24
2023-11-12T02:48:12.571Z,28.30
2023-11-12T02:49:12.422Z,28.23
2023-11-12T02:50:12.411Z,28.21
2023-11-12T02:51:12.449Z,28.30
2023-11-12T02:52:12.419Z,28.25
2023-11-12T02:53:12.413Z,28.24
2023-11-12T02:54:12.416Z,28.25
2023-11-12T02:55:12.401Z,28.32
2023-11-12T02:56:12.476Z,28.27
2023-11-12T02:57:12.442Z,28.28
2023-11-12T02:58:12.386Z,28.14
2023-11-12T02:59:12.392Z,28.13
2023-11-12T03:00:12.425Z,28.11
2023-11-12T03:01:12.413Z,28.17
2023-11-12T03:02:12.371Z,28.14
2023-11-12T03:03:12.440Z,28.05
2023-11-12T03:04:12.546Z,28.02
2023-11-12T03:05:12.368Z,28.06
2023-11-12T03:06:12.454Z,28.05
2023-11-12T03:07:12.354Z,28.08
2023-11-12T03:08:12.359Z,28.03
2023-11-12T03:09:12.401Z,28.13
2023-11-12T03:10:12.361Z,28.08
2023-11-12T03:11:12.341Z,28.01
2023-11-12T03:12:12.355Z,28.08
2023-11-12T03:13:12.331Z,28.08
2023-11-12T03:14:12.328Z,28.11
2023-11-12T03:15:12.382Z,28.09
2023-11-12T03:16:12.367Z,28.14
2023-11-12T03:17:12.322Z,28.08
2023-11-12T03:18:12.436Z,27.95
2023-11-12T03:19:12.413Z,27.87
2023-11-12T03:20:12.309Z,27.84
2023-11-12T03:21:12.346Z,27.88
2023-11-12T03:22:12.317Z,27.86
2023-11-12T03:23:12.299Z,27.88
2023-11-12T03:24:12.321Z,27.87
2023-11-12T03:25:12.310Z,28.02
2023-11-12T03:26:12.292Z,27.99
2023-11-12T03:27:12.291Z,27.99
2023-11-12T03:28:12.311Z,27.96
2023-11-12T03:29:12.280Z,28.02
2023-11-12T03:30:12.359Z,27.93
2023-11-12T03:31:12.284Z,27.99
2023-11-12T03:32:12.269Z,27.98
2023-11-12T03:33:12.298Z,27.90
2023-11-12T03:34:12.264Z,27.86
2023-11-12T03:35:12.259Z,27.74
2023-11-12T03:36:12.281Z,27.80
2023-11-12T03:37:12.250Z,27.76
2023-11-12T03:38:12.250Z,27.80
2023-11-12T03:39:12.269Z,27.81
2023-11-12T03:40:12.245Z,27.88
2023-11-12T03:41:12.237Z,27.88
2023-11-12T03:42:12.250Z,27.84
2023-11-12T03:43:12.239Z,27.78
2023-11-12T03:44:12.361Z,27.80
2023-11-12T03:45:12.253Z,27.72
2023-11-12T03:46:12.225Z,27.72
2023-11-12T03:47:12.221Z,27.76
2023-11-12T03:48:12.361Z,27.72
2023-11-12T03:49:12.223Z,27.65
2023-11-12T03:50:12.205Z,27.65
2023-11-12T03:51:12.248Z,27.61
2023-11-12T03:52:12.210Z,27.68
2023-11-12T03:53:12.197Z,27.66
2023-11-12T03:54:12.223Z,27.72
2023-11-12T03:55:12.199Z,27.77
2023-11-12T03:56:12.185Z,27.78
2023-11-12T03:57:12.196Z,27.72
2023-11-12T03:58:12.177Z,27.71
2023-11-12T03:59:12.182Z,27.76
2023-11-12T04:00:12.246Z,27.76
2023-11-12T04:01:12.223Z,27.84
2023-11-12T04:02:12.216Z,27.83
2023-11-12T04:03:12.460Z,27.69
2023-11-12T04:04:12.314Z,27.77
2023-11-12T04:05:12.311Z,27.74
2023-11-12T04:06:12.213Z,27.77
2023-11-12T04:07:12.147Z,27.78
2023-11-12T04:08:12.141Z,27.74
2023-11-12T04:09:12.290Z,27.71
2023-11-12T04:10:12.134Z,27.74
2023-11-12T04:11:12.136Z,27.74
2023-11-12T04:12:12.160Z,27.80
2023-11-12T04:13:12.122Z,27.78
2023-11-12T04:14:12.126Z,27.84
2023-11-12T04:15:12.171Z,27.76
2023-11-12T04:16:12.175Z,27.74
2023-11-12T04:17:12.108Z,27.77
2023-11-12T04:18:12.154Z,27.74
2023-11-12T04:19:12.102Z,27.68
2023-11-12T04:20:12.092Z,27.72
2023-11-12T04:21:12.119Z,27.76
2023-11-12T04:22:12.089Z,27.74
2023-11-12T04:23:12.086Z,27.65
2023-11-12T04:24:12.198Z,27.77
2023-11-12T04:25:12.090Z,27.72
2023-11-12T04:26:12.073Z,27.78
2023-11-12T04:27:12.102Z,27.77
2023-11-12T04:28:12.066Z,27.78
2023-11-12T04:29:12.095Z,27.74
2023-11-12T04:30:12.069Z,27.80
2023-11-12T04:31:12.073Z,27.74
2023-11-12T04:32:12.052Z,27.86
2023-11-12T04:33:12.058Z,27.76
2023-11-12T04:34:12.087Z,27.80
2023-11-12T04:35:12.065Z,27.80
2023-11-12T04:36:12.084Z,27.71
2023-11-12T04:37:12.033Z,27.74
2023-11-12T04:38:12.035Z,27.78
2023-11-12T04:39:12.058Z,27.81
2023-11-12T04:40:12.026Z,27.86
2023-11-12T04:41:12.024Z,27.76
2023-11-12T04:42:12.040Z,27.83
2023-11-12T04:43:12.014Z,27.83
2023-11-12T04:44:12.108Z,27.84
2023-11-12T04:45:12.058Z,27.81
2023-11-12T04:46:12.031Z,27.71
2023-11-12T04:47:12.002Z,27.74
2023-11-12T04:48:12.052Z,27.74
2023-11-12T04:49:11.991Z,27.77
2023-11-12T04:50:11.993Z,27.69
2023-11-12T04:51:12.058Z,27.74
2023-11-12T04:52:11.983Z,27.78
2023-11-12T04:53:11.981Z,27.65
2023-11-12T04:54:12.391Z,27.52
2023-11-12T04:55:11.971Z,27.58
2023-11-12T04:56:11.970Z,27.59
2023-11-12T04:57:11.983Z,27.42
2023-11-12T04:58:11.961Z,27.35
2023-11-12T04:59:12.214Z,27.27
2023-11-12T05:00:13.952Z,27.33
2023-11-12T05:01:11.947Z,27.33
2023-11-12T05:02:11.997Z,27.28
2023-11-12T05:03:11.965Z,27.30
2023-11-12T05:04:11.992Z,27.38
2023-11-12T05:05:11.928Z,27.30
2023-11-12T05:06:11.954Z,27.35
2023-11-12T05:07:11.926Z,27.24
2023-11-12T05:08:11.921Z,27.20
2023-11-12T05:09:12.043Z,27.16
2023-11-12T05:10:11.915Z,27.16
2023-11-12T05:11:11.925Z,27.03
2023-11-12T05:12:11.915Z,26.90
2023-11-12T05:13:11.914Z,26.90
2023-11-12T05:14:11.911Z,26.71
2023-11-12T05:15:11.952Z,26.56
2023-11-12T05:16:11.912Z,26.50
2023-11-12T05:17:11.885Z,26.44
2023-11-12T05:18:12.028Z,26.16
2023-11-12T05:19:11.982Z,26.06
2023-11-12T05:20:11.868Z,26.09
2023-11-12T05:21:11.877Z,26.03
2023-11-12T05:22:11.863Z,25.91
2023-11-12T05:23:11.860Z,25.93
2023-11-12T05:24:12.116Z,26.01
2023-11-12T05:25:11.845Z,25.97
2023-11-12T05:26:11.851Z,25.93
2023-11-12T05:27:11.848Z,25.91
2023-11-12T05:28:11.831Z,25.82
2023-11-12T05:29:11.925Z,25.71
2023-11-12T05:30:11.829Z,25.66
2023-11-12T05:31:11.914Z,25.45
2023-11-12T05:32:11.812Z,25.42
2023-11-12T05:33:11.880Z,25.29
2023-11-12T05:34:12.052Z,25.11
2023-11-12T05:35:11.795Z,25.14
2023-11-12T05:36:11.829Z,24.99
2023-11-12T05:37:56.803Z,24.97
2023-11-12T05:38:56.783Z,24.92
2023-11-12T05:39:56.791Z,24.90
2023-11-12T05:40:56.736Z,24.86
2023-11-12T05:41:56.738Z,24.90
2023-11-12T05:42:56.724Z,24.93
2023-11-12T05:43:56.717Z,24.90
2023-11-12T05:44:56.712Z,24.86
2023-11-12T05:45:56.709Z,24.87
2023-11-12T05:46:56.699Z,24.70
2023-11-12T05:47:56.744Z,24.61
2023-11-12T05:48:56.687Z,24.53
2023-11-12T05:49:56.679Z,24.49
2023-11-12T05:50:56.791Z,24.59
2023-11-12T05:51:56.669Z,24.61
2023-11-12T05:52:56.662Z,24.52
2023-11-12T05:53:56.667Z,24.61
2023-11-12T05:54:56.713Z,24.55
2023-11-12T05:55:56.645Z,24.51
2023-11-12T05:56:56.637Z,24.44
2023-11-12T05:57:56.645Z,24.33
2023-11-12T05:58:56.625Z,24.34
2023-11-12T05:59:56.620Z,24.33
2023-11-12T06:00:56.618Z,24.26
2023-11-12T06:01:56.628Z,24.24
2023-11-12T06:02:56.662Z,24.23
2023-11-12T06:03:56.834Z,24.19
2023-11-12T06:04:56.589Z,24.30
2023-11-12T06:05:56.583Z,24.26
2023-11-12T06:06:56.581Z,24.23
2023-11-12T06:07:56.671Z,24.19
2023-11-12T06:08:56.565Z,24.16
2023-11-12T06:09:56.563Z,24.08
2023-11-12T06:10:56.552Z,24.15
2023-11-12T06:11:56.545Z,24.08
2023-11-12T06:12:56.537Z,24.00
2023-11-12T06:13:56.694Z,24.06
2023-11-12T06:14:56.525Z,24.05
2023-11-12T06:15:56.522Z,24.04
2023-11-12T06:16:56.541Z,23.97
2023-11-12T06:17:56.569Z,23.99
2023-11-12T06:18:56.499Z,23.92
2023-11-12T06:19:56.633Z,24.08
2023-11-12T06:20:56.500Z,24.11
2023-11-12T06:21:56.516Z,24.23
2023-11-12T06:22:56.473Z,24.26
2023-11-12T06:23:56.477Z,24.26
2023-11-12T06:24:56.459Z,24.23
2023-11-12T06:25:56.555Z,24.23
2023-11-12T06:26:56.455Z,24.15
2023-11-12T06:27:56.453Z,24.15
2023-11-12T06:28:56.441Z,24.12
2023-11-12T06:29:56.429Z,24.15
2023-11-12T06:30:56.520Z,24.19
2023-11-12T06:31:56.420Z,24.27
2023-11-12T06:32:56.546Z,24.14
2023-11-12T06:33:56.596Z,24.09
2023-11-12T06:34:56.412Z,24.02
2023-11-12T06:35:56.649Z,24.00
2023-11-12T06:36:56.385Z,24.11
2023-11-12T06:37:56.377Z,24.08
2023-11-12T06:38:56.448Z,24.08
2023-11-12T06:39:56.390Z,24.21
2023-11-12T06:40:56.356Z,24.24
2023-11-12T06:41:56.478Z,24.24
2023-11-12T06:42:56.353Z,24.24
2023-11-12T06:43:56.344Z,24.18
2023-11-12T06:44:56.333Z,24.11
2023-11-12T06:45:56.328Z,24.11
2023-11-12T06:46:56.369Z,24.19
2023-11-12T06:47:56.358Z,24.11
2023-11-12T06:48:56.324Z,24.08
2023-11-12T06:49:57.914Z,24.14
2023-11-12T06:50:56.293Z,24.08
2023-11-12T06:51:56.288Z,24.15
2023-11-12T06:52:56.280Z,24.16
2023-11-12T06:53:56.277Z,24.24
2023-11-12T06:54:56.269Z,24.26
2023-11-12T06:55:56.265Z,24.18
2023-11-12T06:56:56.355Z,24.24
2023-11-12T06:57:56.253Z,24.24
2023-11-12T06:58:56.244Z,24.26
2023-11-12T06:59:56.241Z,24.31
2023-11-12T07:00:56.374Z,24.29
2023-11-12T07:01:56.225Z,24.21
2023-11-12T07:02:56.392Z,24.24
2023-11-12T07:03:56.297Z,24.19
2023-11-12T07:04:56.204Z,24.24
2023-11-12T07:05:56.209Z,24.12
2023-11-12T07:07:05.980Z,24.09
2023-11-12T07:07:56.188Z,24.14
2023-11-12T07:08:56.184Z,24.14
2023-11-12T07:09:56.180Z,24.12
2023-11-12T07:10:56.168Z,24.16
2023-11-12T07:11:56.162Z,24.26
2023-11-12T07:12:56.154Z,24.18
2023-11-12T07:13:56.149Z,24.15
2023-11-12T07:14:56.160Z,24.19
2023-11-12T07:15:56.448Z,24.24
2023-11-12T07:16:56.231Z,24.19
2023-11-12T07:17:56.143Z,24.16
2023-11-12T07:18:56.213Z,24.26
2023-11-12T07:19:56.112Z,24.30
2023-11-12T07:20:56.108Z,24.24
2023-11-12T07:21:56.100Z,24.23
2023-11-12T07:22:56.096Z,24.27
2023-11-12T07:23:56.105Z,24.19
2023-11-12T07:24:56.088Z,24.26
2023-11-12T07:25:56.074Z,24.23
2023-11-12T07:26:56.070Z,24.30
2023-11-12T07:27:56.080Z,24.24
2023-11-12T07:28:56.305Z,24.30
2023-11-12T07:29:56.053Z,24.30
2023-11-12T07:30:56.041Z,24.26
2023-11-12T07:31:56.038Z,24.39
2023-11-12T07:32:56.140Z,24.34
2023-11-12T07:33:56.032Z,24.30
2023-11-12T07:34:56.019Z,24.30
2023-11-12T07:35:56.014Z,24.31
2023-11-12T07:36:56.001Z,24.37
2023-11-12T07:37:55.997Z,24.33
2023-11-12T07:38:55.995Z,24.33
2023-11-12T07:39:56.040Z,24.37
2023-11-12T07:40:55.979Z,24.33
2023-11-12T07:41:55.980Z,24.36
2023-11-12T07:42:55.976Z,24.36
2023-11-12T07:43:55.963Z,24.34
2023-11-12T07:45:02.957Z,24.34
2023-11-12T07:45:56.085Z,24.34
2023-11-12T07:46:56.096Z,24.44
2023-11-12T07:47:55.962Z,24.45
2023-11-12T07:48:55.935Z,24.46
2023-11-12T07:49:55.933Z,24.52
2023-11-12T07:50:55.925Z,24.51
2023-11-12T07:51:55.918Z,24.34
2023-11-12T07:52:55.912Z,24.36
2023-11-12T07:53:55.901Z,24.39
2023-11-12T07:54:55.898Z,24.39
2023-11-12T07:55:55.899Z,24.33
2023-11-12T07:56:55.894Z,24.41
2023-11-12T07:57:55.880Z,24.41
2023-11-12T07:58:55.874Z,24.48
2023-11-12T07:59:55.865Z,24.36
2023-11-12T08:00:55.857Z,24.31
2023-11-12T08:01:55.903Z,24.29
2023-11-12T08:02:55.859Z,24.23
2023-11-12T08:03:55.886Z,24.27
2023-11-12T08:04:55.833Z,24.27
2023-11-12T08:05:55.826Z,24.21
2023-11-12T08:06:55.857Z,24.26
2023-11-12T08:07:55.815Z,24.21
2023-11-12T08:08:55.810Z,24.19
2023-11-12T08:09:55.804Z,24.14
2023-11-12T08:10:55.797Z,24.15
2023-11-12T08:11:55.896Z,24.09
2023-11-12T08:12:55.785Z,24.14
2023-11-12T08:13:55.781Z,24.11
2023-11-12T08:14:55.774Z,24.15
2023-11-12T08:15:55.767Z,24.15
2023-11-12T08:16:55.768Z,24.15
2023-11-12T08:17:55.783Z,24.14
2023-11-12T08:18:55.813Z,24.12
2023-11-12T08:19:55.741Z,24.04
2023-11-12T08:20:55.803Z,24.15
2023-11-12T08:21:55.866Z,24.05
2023-11-12T08:22:55.723Z,23.99
2023-11-12T08:23:55.717Z,23.93
2023-11-12T08:24:55.712Z,23.92
2023-11-12T08:25:55.703Z,23.96
2023-11-12T08:26:55.698Z,23.90
2023-11-12T08:27:55.742Z,23.93
2023-11-12T08:28:55.687Z,23.92
2023-11-12T08:29:55.683Z,23.89
2023-11-12T08:30:55.763Z,23.94
2023-11-12T08:31:55.686Z,23.93
2023-11-12T08:32:55.695Z,23.87
2023-11-12T08:33:55.797Z,23.89
2023-11-12T08:34:55.648Z,23.93
2023-11-12T08:35:55.652Z,23.99
2023-11-12T08:36:55.714Z,23.87
2023-11-12T08:37:55.729Z,24.06
2023-11-12T08:38:55.634Z,24.00
2023-11-12T08:39:55.643Z,24.11
2023-11-12T08:40:55.625Z,24.15
2023-11-12T08:41:55.615Z,24.00
2023-11-12T08:42:55.610Z,24.14
2023-11-12T08:43:55.587Z,24.06
2023-11-12T08:44:55.679Z,24.15
2023-11-12T08:45:55.608Z,24.09
2023-11-12T08:46:55.625Z,24.15
2023-11-12T08:47:55.577Z,24.09
2023-11-12T08:48:55.605Z,24.11
2023-11-12T08:49:55.558Z,24.15
2023-11-12T08:50:55.542Z,24.16
2023-11-12T08:51:55.556Z,24.21
2023-11-12T08:52:55.529Z,24.23
2023-11-12T08:53:55.523Z,24.16
2023-11-12T08:54:55.562Z,24.18
2023-11-12T08:55:56.109Z,24.29
2023-11-12T08:56:55.505Z,24.29
2023-11-12T08:57:55.526Z,24.36
2023-11-12T08:58:55.491Z,24.31
2023-11-12T08:59:55.487Z,24.36
2023-11-12T09:00:55.561Z,24.30
2023-11-12T09:01:55.508Z,24.26
2023-11-12T09:02:55.508Z,24.30
2023-11-12T09:03:55.557Z,24.29
2023-11-12T09:04:55.464Z,24.31
2023-11-12T09:05:55.450Z,24.36
2023-11-12T09:06:55.459Z,24.31
2023-11-12T09:07:55.435Z,24.46
2023-11-12T09:08:55.431Z,24.46
2023-11-12T09:09:55.475Z,24.45
2023-11-12T09:10:55.420Z,24.52
2023-11-12T09:11:55.413Z,24.59
2023-11-12T09:12:55.437Z,24.56
2023-11-12T09:13:55.403Z,24.64
2023-11-12T09:14:55.408Z,24.59
2023-11-12T09:15:55.467Z,24.63
2023-11-12T09:16:55.414Z,24.63
2023-11-12T09:17:55.411Z,24.53
2023-11-12T09:18:55.418Z,24.60
2023-11-12T09:19:55.377Z,24.63
2023-11-12T09:20:55.374Z,24.64
2023-11-12T09:21:55.410Z,24.79
2023-11-12T09:22:55.349Z,24.79
2023-11-12T09:23:55.349Z,24.70
2023-11-12T09:25:04.720Z,24.74
2023-11-12T09:25:55.330Z,24.66
2023-11-12T09:26:55.424Z,24.68
2023-11-12T09:27:55.360Z,24.79
2023-11-12T09:28:55.312Z,24.74
2023-11-12T09:29:55.308Z,24.71
2023-11-12T09:30:59.981Z,24.83
2023-11-12T09:31:55.296Z,24.90
2023-11-12T09:32:55.340Z,24.89
2023-11-12T09:33:55.307Z,24.89
2023-11-12T09:34:55.291Z,24.93
2023-11-12T09:35:55.299Z,24.89
2023-11-12T09:36:55.427Z,24.94
2023-11-12T09:37:55.260Z,24.98
2023-11-12T09:38:55.256Z,24.97
2023-11-12T09:39:55.360Z,25.01
2023-11-12T09:40:55.248Z,25.04
2023-11-12T09:41:55.244Z,25.14
2023-11-12T09:42:55.252Z,25.12
2023-11-12T09:43:55.244Z,25.16
2023-11-12T09:44:55.229Z,25.08
2023-11-12T09:45:55.258Z,25.17
2023-11-12T09:46:55.334Z,25.27
2023-11-12T09:47:55.251Z,25.31
2023-11-12T09:48:55.269Z,25.26
2023-11-12T09:49:55.195Z,25.23
2023-11-12T09:50:55.187Z,25.34
2023-11-12T09:51:55.200Z,25.26
2023-11-12T09:52:55.178Z,25.36
2023-11-12T09:53:55.172Z,25.24
2023-11-12T09:54:55.202Z,25.27
2023-11-12T09:55:55.165Z,25.31
2023-11-12T09:57:06.276Z,25.45
2023-11-12T09:57:55.165Z,25.39
2023-11-12T09:58:55.143Z,25.41
2023-11-12T09:59:55.137Z,25.36
2023-11-12T10:00:55.163Z,25.41
2023-11-12T10:01:55.184Z,25.57
2023-11-12T10:02:55.197Z,25.54
2023-11-12T10:03:55.246Z,25.57
2023-11-12T10:04:55.129Z,25.56
2023-11-12T10:05:55.107Z,25.51
2023-11-12T10:06:55.262Z,25.61
2023-11-12T10:07:55.096Z,25.56
2023-11-12T10:08:55.099Z,25.60
2023-11-12T10:09:55.103Z,25.72
2023-11-12T10:10:55.083Z,25.63
2023-11-12T10:11:55.077Z,25.67
2023-11-12T10:12:55.101Z,25.63
2023-11-12T10:13:55.077Z,25.75
2023-11-12T10:14:55.060Z,25.72
2023-11-12T10:15:55.158Z,25.79
2023-11-12T10:16:55.205Z,25.78
2023-11-12T10:17:57.663Z,25.79
2023-11-12T10:18:55.219Z,25.78
2023-11-12T10:19:55.032Z,25.78
2023-11-12T10:20:55.027Z,25.81
2023-11-12T10:21:55.143Z,25.78
2023-11-12T10:22:55.022Z,25.81
2023-11-12T10:23:55.014Z,25.90
2023-11-12T10:24:55.070Z,25.86
2023-11-12T10:25:55.009Z,25.93
2023-11-12T10:26:55.172Z,25.89
2023-11-12T10:27:55.051Z,25.86
2023-11-12T10:28:54.990Z,25.89
2023-11-12T10:29:54.980Z,26.01
2023-11-12T10:30:55.063Z,25.96
2023-11-12T10:31:54.989Z,25.98
2023-11-12T10:32:54.994Z,26.04
2023-11-12T10:33:55.012Z,26.17
2023-11-12T10:34:54.957Z,26.29
2023-11-12T10:35:54.954Z,26.31
2023-11-12T10:36:55.081Z,26.35
2023-11-12T10:37:54.939Z,26.31
2023-11-12T10:38:54.937Z,26.34
2023-11-12T10:39:54.965Z,26.36
2023-11-12T10:40:54.928Z,26.32
2023-11-12T10:41:54.924Z,26.38
2023-11-12T10:42:54.979Z,26.46
2023-11-12T10:43:54.909Z,26.41
2023-11-12T10:44:54.912Z,26.50
2023-11-12T10:45:54.944Z,26.53
2023-11-12T10:46:54.929Z,26.57
2023-11-12T10:47:54.922Z,26.53
2023-11-12T10:48:54.945Z,26.53
2023-11-12T10:49:54.886Z,26.56
2023-11-12T10:50:54.884Z,26.61
2023-11-12T10:51:54.941Z,26.60
2023-11-12T10:52:54.866Z,26.68
2023-11-12T10:53:54.873Z,26.66
2023-11-12T10:54:54.896Z,26.87
2023-11-12T10:55:54.856Z,26.90
2023-11-12T10:56:54.853Z,26.84
2023-11-12T10:57:54.913Z,26.83
2023-11-12T10:58:54.848Z,26.93
2023-11-12T10:59:54.850Z,26.84
2023-11-12T11:00:54.891Z,26.91
2023-11-12T11:01:54.971Z,26.84
2023-11-12T11:02:54.938Z,26.96
2023-11-12T11:03:54.895Z,27.09
2023-11-12T11:04:54.815Z,26.97
2023-11-12T11:05:54.821Z,26.96
2023-11-12T11:06:54.853Z,27.09
2023-11-12T11:07:54.804Z,27.16
2023-11-12T11:08:54.797Z,27.25
2023-11-12T11:09:54.830Z,27.25
2023-11-12T11:10:54.794Z,27.31
2023-11-12T11:11:54.895Z,27.38
2023-11-12T11:12:54.810Z,27.39
2023-11-12T11:13:54.781Z,27.40
2023-11-12T11:14:54.774Z,27.43
2023-11-12T11:15:54.834Z,27.50
2023-11-12T11:16:54.838Z,27.50
2023-11-12T11:17:54.784Z,27.53
2023-11-12T11:18:54.847Z,27.62
2023-11-12T11:19:54.757Z,27.62
2023-11-12T11:20:54.749Z,27.66
2023-11-12T11:21:54.872Z,27.63
2023-11-12T11:22:54.748Z,27.66
2023-11-12T11:23:54.887Z,27.76
2023-11-12T11:24:54.760Z,27.74
2023-11-12T11:25:54.736Z,27.76
2023-11-12T11:26:55.052Z,27.87
2023-11-12T11:27:54.843Z,27.91
2023-11-12T11:28:54.716Z,27.95
2023-11-12T11:29:54.713Z,28.06
2023-11-12T11:30:54.722Z,28.09
2023-11-12T11:31:54.707Z,28.11
2023-11-12T11:32:54.765Z,28.27
2023-11-12T11:33:54.842Z,28.23
2023-11-12T11:34:54.694Z,28.30
2023-11-12T11:35:54.691Z,28.24
2023-11-12T11:36:54.741Z,28.28
2023-11-12T11:37:54.680Z,28.45
2023-11-12T11:38:56.487Z,28.38
2023-11-12T11:39:54.707Z,28.39
2023-11-12T11:40:54.671Z,28.48
2023-11-12T11:41:54.743Z,28.51
2023-11-12T11:42:54.714Z,28.69
2023-11-12T11:43:54.657Z,28.62
2023-11-12T11:44:57.177Z,28.74
2023-11-12T11:45:54.735Z,28.70
2023-11-12T11:46:54.654Z,28.76
2023-11-12T11:47:54.657Z,28.85
2023-11-12T11:48:54.669Z,28.98
2023-11-12T11:49:54.636Z,28.98
2023-11-12T11:50:56.542Z,29.08
2023-11-12T11:51:54.714Z,29.17
2023-11-12T11:52:54.631Z,29.25
2023-11-12T11:53:54.622Z,29.37
2023-11-12T11:54:54.662Z,29.35
2023-11-12T11:55:54.767Z,29.44
2023-11-12T11:56:54.614Z,29.41
2023-11-12T11:57:54.673Z,29.51
2023-11-12T11:58:54.621Z,29.69
2023-11-12T11:59:54.604Z,29.78
2023-11-12T12:00:54.645Z,29.91
2023-11-12T12:01:54.654Z,30.04
2023-11-12T12:02:54.632Z,30.04
2023-11-12T12:03:54.638Z,30.11
2023-11-12T12:04:54.658Z,30.23
2023-11-12T12:05:54.589Z,30.34
2023-11-12T12:06:54.614Z,30.29
2023-11-12T12:07:54.585Z,30.53
2023-11-12T12:08:54.582Z,30.63
2023-11-12T12:09:57.591Z,30.78
2023-11-12T12:10:54.573Z,31.04
2023-11-12T12:11:54.675Z,31.10
2023-11-12T12:12:54.620Z,31.23
2023-11-12T12:13:54.569Z,31.28
2023-11-12T12:14:54.567Z,31.60
2023-11-12T12:15:54.605Z,31.78
2023-11-12T12:16:54.653Z,31.87
2023-11-12T12:17:54.577Z,31.95
2023-11-12T12:18:54.628Z,32.32
2023-11-12T12:19:54.558Z,32.35
2023-11-12T12:20:54.559Z,32.36
2023-11-12T12:21:54.610Z,32.78
2023-11-12T12:22:54.564Z,32.81
2023-11-12T12:23:54.557Z,33.70
2023-11-12T12:24:54.615Z,33.72
2023-11-12T12:25:54.552Z,33.75
2023-11-12T12:26:54.657Z,33.93
2023-11-12T12:27:54.671Z,33.84
2023-11-12T12:28:54.570Z,33.75
2023-11-12T12:29:54.640Z,33.86
2023-11-12T12:30:54.640Z,33.82
2023-11-12T12:31:54.580Z,33.96
2023-11-12T12:32:54.636Z,34.03
2023-11-12T12:33:54.589Z,34.19
2023-11-12T12:34:54.557Z,33.90
2023-11-12T12:35:54.560Z,34.05
2023-11-12T12:36:54.571Z,34.12
2023-11-12T12:37:54.560Z,34.18
2023-11-12T12:38:54.562Z,34.30
2023-11-12T12:39:56.849Z,34.40
2023-11-12T12:40:54.563Z,34.46
2023-11-12T12:41:54.562Z,34.53
2023-11-12T12:42:54.605Z,34.67
2023-11-12T12:43:54.572Z,34.67
2023-11-12T12:44:54.570Z,34.90
2023-11-12T12:45:54.598Z,34.71
2023-11-12T12:46:54.573Z,34.72
2023-11-12T12:47:54.621Z,34.75
2023-11-12T12:48:54.676Z,34.86
2023-11-12T12:49:54.582Z,35.00
2023-11-12T12:50:54.578Z,35.18
2023-11-12T12:51:54.620Z,34.95
2023-11-12T12:52:54.582Z,35.06